Time,TemperatureF,DewpointF,PressureIn,WindDirection,WindDirectionDegrees,WindSpeedMPH,WindSpeedGustMPH,Humidity,HourlyPrecipIn,Conditions,Clouds,dailyrainin,SoftwareType,DateUTC
2013-02-24 00:00:00,27.5,25.7,29.98,SW,229,0.0,0.0,93,0.00,,,0.00,VWS V13.01,2013-02-24 06:00:00,
2013-02-24 00:05:00,27.5,25.7,29.98,SW,229,0.0,0.0,93,0.00,,,0.00,VWS V13.01,2013-02-24 06:05:00,
2013-02-24 00:10:00,27.3,25.8,29.98,NW,307,0.0,0.0,94,0.00,,,0.00,VWS V13.01,2013-02-24 06:10:00,
2013-02-24 00:15:00,27.1,25.4,29.98,NW,319,0.0,0.0,93,0.00,,,0.00,VWS V13.01,2013-02-24 06:15:00,
2013-02-24 00:20:00,27.1,25.4,29.98,NW,319,0.0,0.0,93,0.00,,,0.00,VWS V13.01,2013-02-24 06:20:00,
2013-02-24 00:25:00,27.1,25.6,29.98,NW,321,0.0,0.0,94,0.00,,,0.00,VWS V13.01,2013-02-24 06:25:00,
2013-02-24 00:30:00,26.8,25.3,29.98,NNE,13,3.1,3.1,94,0.00,,,0.00,VWS V13.01,2013-02-24 06:30:00,
2013-02-24 00:35:00,26.6,25.3,29.98,NNE,13,2.7,3.1,95,0.00,,,0.00,VWS V13.01,2013-02-24 06:35:00,
2013-02-24 00:40:00,26.4,25.2,29.98,North,5,3.1,3.1,95,0.00,,,0.00,VWS V13.01,2013-02-24 06:40:00,
2013-02-24 00:45:00,26.2,25.0,29.98,NNE,19,2.7,3.1,95,0.00,,,0.00,VWS V13.01,2013-02-24 06:45:00,
2013-02-24 00:50:00,26.0,25.1,29.98,NNE,17,2.7,2.7,96,0.00,,,0.00,VWS V13.01,2013-02-24 06:50:00,
2013-02-24 00:55:00,26.0,25.3,29.98,NNE,17,0.0,0.0,97,0.00,,,0.00,VWS V13.01,2013-02-24 06:55:00,
2013-02-24 01:00:00,25.9,25.1,30.01,NNE,17,0.0,0.0,97,0.00,,,0.00,VWS V13.01,2013-02-24 07:00:00,
2013-02-24 01:05:00,25.9,25.1,30.01,NNE,18,3.1,3.1,97,0.00,,,0.00,VWS V13.01,2013-02-24 07:05:00,
2013-02-24 01:10:00,25.9,25.4,30.01,NNE,18,2.2,2.2,98,0.00,,,0.00,VWS V13.01,2013-02-24 07:10:00,
2013-02-24 01:15:00,25.9,25.4,29.98,NNE,18,0.0,0.0,98,0.00,,,0.00,VWS V13.01,2013-02-24 07:15:00,
2013-02-24 01:20:00,25.9,25.4,29.98,NNE,18,0.0,0.0,98,0.00,,,0.00,VWS V13.01,2013-02-24 07:20:00,
2013-02-24 01:25:00,26.0,25.8,29.98,NNE,18,0.0,0.0,99,0.00,,,0.00,VWS V13.01,2013-02-24 07:25:00,
2013-02-24 01:30:00,26.0,25.8,30.01,NNE,18,0.0,0.0,99,0.00,,,0.00,VWS V13.01,2013-02-24 07:30:00,
2013-02-24 01:35:00,26.0,25.8,30.01,NNE,22,0.0,0.0,99,0.00,,,0.00,VWS V13.01,2013-02-24 07:35:00,
2013-02-24 01:40:00,26.0,25.8,30.01,NNE,22,0.0,0.0,99,0.00,,,0.00,VWS V13.01,2013-02-24 07:40:00,
2013-02-24 01:45:00,26.0,25.8,29.98,NNE,22,0.0,0.0,99,0.00,,,0.00,VWS V13.01,2013-02-24 07:45:00,
2013-02-24 01:50:00,26.0,25.8,29.98,NNE,22,0.0,0.0,99,0.00,,,0.00,VWS V13.01,2013-02-24 07:50:00,
2013-02-24 01:55:00,26.2,26.0,29.98,NNE,22,0.0,0.0,99,0.00,,,0.00,VWS V13.01,2013-02-24 07:55:00,
2013-02-24 02:00:00,26.0,25.8,29.98,NNE,22,0.0,0.0,99,0.00,,,0.00,VWS V13.01,2013-02-24 08:00:00,
2013-02-24 02:05:00,26.0,25.5,29.98,NNE,22,0.0,0.0,98,0.00,,,0.00,VWS V13.01,2013-02-24 08:05:00,
2013-02-24 02:10:00,25.9,25.4,29.98,NNE,22,0.0,0.0,98,0.00,,,0.00,VWS V13.01,2013-02-24 08:10:00,
2013-02-24 02:14:00,25.9,25.4,29.98,NE,40,0.0,0.0,98,0.00,,,0.00,VWS V13.01,2013-02-24 08:14:00,
2013-02-24 02:19:00,25.7,25.2,29.98,NE,40,0.0,0.0,98,0.00,,,0.00,VWS V13.01,2013-02-24 08:19:00,
2013-02-24 02:24:00,25.5,25.0,29.98,NE,40,0.0,0.0,98,0.00,,,0.00,VWS V13.01,2013-02-24 08:24:00,
2013-02-24 02:29:00,25.9,25.4,29.98,NE,40,0.0,0.0,98,0.00,,,0.00,VWS V13.01,2013-02-24 08:29:00,
2013-02-24 02:34:00,25.9,25.4,29.98,NE,40,0.0,0.0,98,0.00,,,0.00,VWS V13.01,2013-02-24 08:34:00,
2013-02-24 02:39:00,25.9,25.4,29.98,NE,39,0.0,0.0,98,0.00,,,0.00,VWS V13.01,2013-02-24 08:39:00,
2013-02-24 02:44:00,25.7,25.2,29.98,NE,40,0.0,0.0,98,0.00,,,0.00,VWS V13.01,2013-02-24 08:44:00,
2013-02-24 02:49:00,25.5,25.0,29.98,NE,40,0.0,0.0,98,0.00,,,0.00,VWS V13.01,2013-02-24 08:49:00,
2013-02-24 02:54:00,25.7,25.2,29.98,NE,39,0.0,0.0,98,0.00,,,0.00,VWS V13.01,2013-02-24 08:54:00,
2013-02-24 02:59:00,25.7,25.2,29.98,NE,40,0.0,0.0,98,0.00,,,0.00,VWS V13.01,2013-02-24 08:59:00,
2013-02-24 03:04:00,25.5,25.0,29.98,NE,39,0.0,0.0,98,0.00,,,0.00,VWS V13.01,2013-02-24 09:04:00,
2013-02-24 03:09:00,25.5,25.0,29.98,NE,40,0.0,0.0,98,0.00,,,0.00,VWS V13.01,2013-02-24 09:09:00,
2013-02-24 03:14:00,25.5,25.0,29.98,NE,39,0.0,0.0,98,0.00,,,0.00,VWS V13.01,2013-02-24 09:14:00,
2013-02-24 03:19:00,25.5,25.3,29.98,NE,40,0.0,0.0,99,0.00,,,0.00,VWS V13.01,2013-02-24 09:19:00,
2013-02-24 03:24:00,25.7,25.4,29.98,NE,40,0.0,0.0,99,0.00,,,0.00,VWS V13.01,2013-02-24 09:24:00,
2013-02-24 03:29:00,26.0,26.0,29.98,NE,40,0.0,0.0,100,0.00,,,0.00,VWS V13.01,2013-02-24 09:29:00,
2013-02-24 03:34:00,25.7,25.4,29.98,NE,40,0.0,0.0,99,0.00,,,0.00,VWS V13.01,2013-02-24 09:34:00,
2013-02-24 03:39:00,25.5,25.0,29.98,NE,39,0.0,0.0,98,0.00,,,0.00,VWS V13.01,2013-02-24 09:39:00,
2013-02-24 03:44:00,25.3,24.8,29.98,NE,39,0.0,0.0,98,0.00,,,0.00,VWS V13.01,2013-02-24 09:44:00,
2013-02-24 03:49:00,25.1,24.6,29.98,NE,39,0.0,0.0,98,0.00,,,0.00,VWS V13.01,2013-02-24 09:49:00,
2013-02-24 03:54:00,25.1,24.6,29.98,NE,39,0.0,0.0,98,0.00,,,0.00,VWS V13.01,2013-02-24 09:54:00,
2013-02-24 03:59:00,25.1,24.9,29.98,NE,39,0.0,0.0,99,0.00,,,0.00,VWS V13.01,2013-02-24 09:59:00,
2013-02-24 04:04:00,25.0,24.5,29.98,NE,39,2.7,3.6,98,0.00,,,0.00,VWS V13.01,2013-02-24 10:04:00,
2013-02-24 04:09:00,24.8,24.3,29.98,NE,40,0.0,0.0,98,0.00,,,0.00,VWS V13.01,2013-02-24 10:09:00,
2013-02-24 04:14:00,24.6,24.1,29.98,NE,39,0.0,0.0,98,0.00,,,0.00,VWS V13.01,2013-02-24 10:14:00,
2013-02-24 04:19:00,24.8,24.3,29.98,NE,39,0.0,0.0,98,0.00,,,0.00,VWS V13.01,2013-02-24 10:19:00,
2013-02-24 04:24:00,25.1,25.1,29.98,NE,39,0.0,0.0,100,0.00,,,0.00,VWS V13.01,2013-02-24 10:24:00,
2013-02-24 04:29:00,25.1,25.1,29.98,NE,39,0.0,0.0,100,0.00,,,0.00,VWS V13.01,2013-02-24 10:29:00,
2013-02-24 04:34:00,25.7,25.7,29.98,NE,39,0.0,0.0,100,0.00,,,0.00,VWS V13.01,2013-02-24 10:34:00,
2013-02-24 04:39:00,25.5,25.5,29.98,NE,39,2.2,2.2,100,0.00,,,0.00,VWS V13.01,2013-02-24 10:39:00,
2013-02-24 04:44:00,25.3,25.1,29.98,NE,39,0.0,0.0,99,0.00,,,0.00,VWS V13.01,2013-02-24 10:44:00,
2013-02-24 04:49:00,25.1,24.9,29.98,NE,39,0.0,0.0,99,0.00,,,0.00,VWS V13.01,2013-02-24 10:49:00,
2013-02-24 04:54:00,25.0,24.5,29.98,NE,39,2.7,3.1,98,0.00,,,0.00,VWS V13.01,2013-02-24 10:54:00,
2013-02-24 04:59:00,24.4,23.9,29.98,NE,39,0.0,0.0,98,0.00,,,0.00,VWS V13.01,2013-02-24 10:59:00,
2013-02-24 05:04:00,24.6,24.1,29.98,NE,39,0.0,0.0,98,0.00,,,0.00,VWS V13.01,2013-02-24 11:04:00,
2013-02-24 05:09:00,25.0,24.7,29.98,NE,39,0.0,0.0,99,0.00,,,0.00,VWS V13.01,2013-02-24 11:09:00,
2013-02-24 05:14:00,24.8,24.5,29.98,NE,39,0.0,0.0,99,0.00,,,0.00,VWS V13.01,2013-02-24 11:14:00,
2013-02-24 05:19:00,24.6,24.4,29.98,NE,39,0.0,0.0,99,0.00,,,0.00,VWS V13.01,2013-02-24 11:19:00,
2013-02-24 05:24:00,24.8,24.3,29.98,NE,40,0.0,0.0,98,0.00,,,0.00,VWS V13.01,2013-02-24 11:24:00,
2013-02-24 05:29:00,24.8,24.3,29.98,NE,39,0.0,0.0,98,0.00,,,0.00,VWS V13.01,2013-02-24 11:29:00,
2013-02-24 05:34:00,24.8,24.3,29.98,NE,40,0.0,0.0,98,0.00,,,0.00,VWS V13.01,2013-02-24 11:34:00,
2013-02-24 05:39:00,24.8,24.3,29.98,NE,39,0.0,0.0,98,0.00,,,0.00,VWS V13.01,2013-02-24 11:39:00,
2013-02-24 05:44:00,24.6,24.4,29.98,NE,39,0.0,0.0,99,0.00,,,0.00,VWS V13.01,2013-02-24 11:44:00,
2013-02-24 05:49:00,24.4,24.2,29.98,NE,40,0.0,0.0,99,0.00,,,0.00,VWS V13.01,2013-02-24 11:49:00,
2013-02-24 05:54:00,24.4,24.2,29.98,NE,39,0.0,0.0,99,0.00,,,0.00,VWS V13.01,2013-02-24 11:54:00,
2013-02-24 05:59:00,24.6,24.4,29.98,NE,39,0.0,0.0,99,0.00,,,0.00,VWS V13.01,2013-02-24 11:59:00,
2013-02-24 06:04:00,25.0,25.0,29.98,NE,39,0.0,0.0,100,0.00,,,0.00,VWS V13.01,2013-02-24 12:04:00,
2013-02-24 06:09:00,25.0,25.0,29.98,NE,40,0.0,0.0,100,0.00,,,0.00,VWS V13.01,2013-02-24 12:09:00,
2013-02-24 06:14:00,24.8,24.5,29.98,NE,39,0.0,0.0,99,0.00,,,0.00,VWS V13.01,2013-02-24 12:14:00,
2013-02-24 06:19:00,25.0,24.7,29.98,NE,39,0.0,0.0,99,0.00,,,0.00,VWS V13.01,2013-02-24 12:19:00,
2013-02-24 06:24:00,24.6,24.4,29.98,NE,39,0.0,0.0,99,0.00,,,0.00,VWS V13.01,2013-02-24 12:24:00,
2013-02-24 06:29:00,24.6,24.4,29.98,NE,39,0.0,0.0,99,0.00,,,0.00,VWS V13.01,2013-02-24 12:29:00,
2013-02-24 06:34:00,24.4,24.2,29.98,NE,39,0.0,0.0,99,0.00,,,0.00,VWS V13.01,2013-02-24 12:34:00,
2013-02-24 06:39:00,24.6,24.4,29.98,NE,39,0.0,0.0,99,0.00,,,0.00,VWS V13.01,2013-02-24 12:39:00,
2013-02-24 06:44:00,24.4,23.9,29.98,NE,39,0.0,0.0,98,0.00,,,0.00,VWS V13.01,2013-02-24 12:44:00,
2013-02-24 06:49:00,24.6,24.1,29.98,NE,39,0.0,0.0,98,0.00,,,0.00,VWS V13.01,2013-02-24 12:49:00,
2013-02-24 06:54:00,24.6,24.1,29.98,NE,40,0.0,0.0,98,0.00,,,0.00,VWS V13.01,2013-02-24 12:54:00,
2013-02-24 06:59:00,24.2,23.8,30.01,NE,39,0.0,0.0,98,0.00,,,0.00,VWS V13.01,2013-02-24 12:59:00,
2013-02-24 07:04:00,24.1,23.6,30.01,NE,39,0.0,0.0,98,0.00,,,0.00,VWS V13.01,2013-02-24 13:04:00,
2013-02-24 07:09:00,24.2,23.8,30.01,NE,40,0.0,0.0,98,0.00,,,0.00,VWS V13.01,2013-02-24 13:09:00,
2013-02-24 07:14:00,24.2,24.0,30.01,NE,39,0.0,0.0,99,0.00,,,0.00,VWS V13.01,2013-02-24 13:14:00,
2013-02-24 07:19:00,24.4,24.4,30.01,NE,39,0.0,0.0,100,0.00,,,0.00,VWS V13.01,2013-02-24 13:19:00,
2013-02-24 07:24:00,25.0,25.0,30.01,NE,39,0.0,0.0,100,0.00,,,0.00,VWS V13.01,2013-02-24 13:24:00,
2013-02-24 07:29:00,25.3,25.3,30.01,NE,39,0.0,0.0,100,0.00,,,0.00,VWS V13.01,2013-02-24 13:29:00,
2013-02-24 07:34:00,25.9,25.9,30.01,NE,39,3.6,3.6,100,0.00,,,0.00,VWS V13.01,2013-02-24 13:34:00,
2013-02-24 07:39:00,26.6,26.6,30.01,NE,39,0.0,0.0,100,0.00,,,0.00,VWS V13.01,2013-02-24 13:39:00,
2013-02-24 07:44:00,27.1,27.1,30.01,NE,40,0.0,0.0,100,0.00,,,0.00,VWS V13.01,2013-02-24 13:44:00,
2013-02-24 07:49:00,27.8,27.6,30.01,North,10,0.0,0.0,99,0.00,,,0.00,VWS V13.01,2013-02-24 13:49:00,
2013-02-24 07:54:00,28.7,27.8,30.01,NNE,26,2.7,3.6,96,0.00,,,0.00,VWS V13.01,2013-02-24 13:54:00,
2013-02-24 07:59:00,30.0,28.5,30.01,NE,36,4.5,4.9,94,0.00,,,0.00,VWS V13.01,2013-02-24 13:59:00,
2013-02-24 08:04:00,31.4,27.5,30.01,NNE,31,4.9,4.9,85,0.00,,,0.00,VWS V13.01,2013-02-24 14:04:00,
2013-02-24 08:09:00,32.7,27.2,30.01,NE,56,4.0,4.0,80,0.00,,,0.00,VWS V13.01,2013-02-24 14:09:00,
2013-02-24 08:14:00,33.8,27.0,30.01,NE,40,5.4,5.4,76,0.00,,,0.00,VWS V13.01,2013-02-24 14:14:00,
2013-02-24 08:19:00,34.9,27.1,30.01,NNE,28,4.0,4.0,73,0.00,,,0.00,VWS V13.01,2013-02-24 14:19:00,
2013-02-24 08:24:00,35.9,27.1,30.01,NE,56,6.3,6.3,70,0.00,,,0.00,VWS V13.01,2013-02-24 14:24:00,
2013-02-24 08:29:00,36.7,26.8,30.04,NE,52,4.0,5.4,67,0.00,,,0.00,VWS V13.01,2013-02-24 14:29:00,
2013-02-24 08:34:00,37.2,27.6,30.04,NE,53,4.0,4.0,68,0.00,,,0.00,VWS V13.01,2013-02-24 14:34:00,
2013-02-24 08:39:00,37.6,26.5,30.04,NE,51,4.0,4.0,64,0.00,,,0.00,VWS V13.01,2013-02-24 14:39:00,
2013-02-24 08:44:00,38.1,26.6,30.04,NE,39,5.4,5.4,63,0.00,,,0.00,VWS V13.01,2013-02-24 14:44:00,
2013-02-24 08:49:00,38.5,28.1,30.04,NNE,30,5.4,5.4,66,0.00,,,0.00,VWS V13.01,2013-02-24 14:49:00,
2013-02-24 08:54:00,39.0,27.1,30.04,NE,45,5.8,5.8,62,0.00,,,0.00,VWS V13.01,2013-02-24 14:54:00,
2013-02-24 08:59:00,39.4,27.4,30.04,ENE,61,4.9,5.4,62,0.00,,,0.00,VWS V13.01,2013-02-24 14:59:00,
2013-02-24 09:04:00,40.1,27.3,30.04,East,86,8.3,8.3,60,0.00,,,0.00,VWS V13.01,2013-02-24 15:04:00,
2013-02-24 09:09:00,40.1,27.3,30.04,ENE,70,4.0,5.4,60,0.00,,,0.00,VWS V13.01,2013-02-24 15:09:00,
2013-02-24 09:14:00,40.4,27.7,30.04,NE,48,6.3,6.3,60,0.00,,,0.00,VWS V13.01,2013-02-24 15:14:00,
2013-02-24 09:19:00,40.4,27.3,30.04,East,88,8.7,8.7,59,0.00,,,0.00,VWS V13.01,2013-02-24 15:19:00,
2013-02-24 09:24:00,41.0,27.8,30.04,NE,56,6.3,7.6,59,0.00,,,0.00,VWS V13.01,2013-02-24 15:24:00,
2013-02-24 09:29:00,41.2,27.9,30.04,NNE,33,5.4,5.8,59,0.00,,,0.00,VWS V13.01,2013-02-24 15:29:00,
2013-02-24 09:34:00,41.7,28.4,30.04,NE,37,5.8,5.8,59,0.00,,,0.00,VWS V13.01,2013-02-24 15:34:00,
2013-02-24 09:39:00,42.1,28.8,30.04,East,79,2.7,2.7,59,0.00,,,0.00,VWS V13.01,2013-02-24 15:39:00,
2013-02-24 09:44:00,42.8,28.6,30.04,East,90,7.2,7.2,57,0.00,,,0.00,VWS V13.01,2013-02-24 15:44:00,
2013-02-24 09:49:00,42.8,27.8,30.04,ENE,59,5.8,10.5,55,0.00,,,0.00,VWS V13.01,2013-02-24 15:49:00,
2013-02-24 09:54:00,43.0,28.4,30.04,ENE,74,4.9,7.6,56,0.00,,,0.00,VWS V13.01,2013-02-24 15:54:00,
2013-02-24 09:59:00,43.1,28.1,30.01,East,83,8.1,8.1,55,0.00,,,0.00,VWS V13.01,2013-02-24 15:59:00,
2013-02-24 10:04:00,44.2,29.1,30.01,NE,34,6.3,7.6,55,0.00,,,0.00,VWS V13.01,2013-02-24 16:04:00,
2013-02-24 10:09:00,44.8,29.1,30.01,ENE,75,4.0,4.0,54,0.00,,,0.00,VWS V13.01,2013-02-24 16:09:00,
2013-02-24 10:14:00,44.8,28.7,30.04,ENE,67,8.1,8.1,53,0.00,,,0.00,VWS V13.01,2013-02-24 16:14:00,
2013-02-24 10:19:00,44.8,28.2,30.04,ENE,61,10.1,10.1,52,0.00,,,0.00,VWS V13.01,2013-02-24 16:19:00,
2013-02-24 10:24:00,44.9,28.4,30.04,NE,54,5.4,8.1,52,0.00,,,0.00,VWS V13.01,2013-02-24 16:24:00,
2013-02-24 10:29:00,45.1,28.6,30.04,ESE,115,5.8,8.3,52,0.00,,,0.00,VWS V13.01,2013-02-24 16:29:00,
2013-02-24 10:34:00,45.3,28.7,30.04,ENE,76,5.4,8.1,52,0.00,,,0.00,VWS V13.01,2013-02-24 16:34:00,
2013-02-24 10:39:00,45.8,29.2,30.04,NE,45,4.0,6.3,52,0.00,,,0.00,VWS V13.01,2013-02-24 16:39:00,
2013-02-24 10:44:00,46.2,29.1,30.04,NE,49,6.3,6.3,51,0.00,,,0.00,VWS V13.01,2013-02-24 16:44:00,
2013-02-24 10:49:00,46.4,29.2,30.04,ENE,67,4.0,5.8,51,0.00,,,0.00,VWS V13.01,2013-02-24 16:49:00,
2013-02-24 10:54:00,46.9,29.3,30.04,SE,129,5.8,8.3,50,0.00,,,0.00,VWS V13.01,2013-02-24 16:54:00,
2013-02-24 10:59:00,46.9,29.3,30.04,ESE,105,5.8,6.3,50,0.00,,,0.00,VWS V13.01,2013-02-24 16:59:00,
2013-02-24 11:04:00,47.3,29.6,30.04,ESE,119,6.7,6.7,50,0.00,,,0.00,VWS V13.01,2013-02-24 17:04:00,
2013-02-24 11:09:00,47.8,29.6,30.04,East,81,5.4,5.4,49,0.00,,,0.00,VWS V13.01,2013-02-24 17:09:00,
2013-02-24 11:14:00,48.2,29.4,30.01,South,170,5.8,5.8,48,0.00,,,0.00,VWS V13.01,2013-02-24 17:14:00,
2013-02-24 11:19:00,48.0,29.3,30.01,SE,143,8.1,8.1,48,0.00,,,0.00,VWS V13.01,2013-02-24 17:19:00,
2013-02-24 11:24:00,47.6,28.9,30.01,SSE,147,5.8,5.8,48,0.00,,,0.00,VWS V13.01,2013-02-24 17:24:00,
2013-02-24 11:29:00,48.2,29.4,30.01,ENE,76,8.1,8.1,48,0.00,,,0.00,VWS V13.01,2013-02-24 17:29:00,
2013-02-24 11:34:00,48.2,29.4,30.01,NE,41,5.4,7.6,48,0.00,,,0.00,VWS V13.01,2013-02-24 17:34:00,
2013-02-24 11:39:00,48.9,30.1,30.01,ENE,70,8.1,8.1,48,0.00,,,0.00,VWS V13.01,2013-02-24 17:39:00,
2013-02-24 11:44:00,49.3,30.4,30.01,NE,55,8.1,11.0,48,0.00,,,0.00,VWS V13.01,2013-02-24 17:44:00,
2013-02-24 11:49:00,49.3,30.4,30.01,East,93,12.3,12.3,48,0.00,,,0.00,VWS V13.01,2013-02-24 17:49:00,
2013-02-24 11:54:00,48.9,30.1,30.01,East,87,8.7,8.7,48,0.00,,,0.00,VWS V13.01,2013-02-24 17:54:00,
2013-02-24 11:59:00,49.3,30.4,30.01,East,97,5.4,5.4,48,0.00,,,0.00,VWS V13.01,2013-02-24 17:59:00,
2013-02-24 12:04:00,49.6,30.8,30.01,East,81,10.1,10.1,48,0.00,,,0.00,VWS V13.01,2013-02-24 18:04:00,
2013-02-24 12:09:00,50.2,30.7,30.01,East,94,8.3,8.3,47,0.00,,,0.00,VWS V13.01,2013-02-24 18:09:00,
2013-02-24 12:14:00,50.2,30.7,30.01,ENE,62,10.1,10.1,47,0.00,,,0.00,VWS V13.01,2013-02-24 18:14:00,
2013-02-24 12:19:00,50.2,30.7,30.01,East,92,11.0,11.9,47,0.00,,,0.00,VWS V13.01,2013-02-24 18:19:00,
2013-02-24 12:24:00,50.3,30.9,30.01,ENE,59,10.5,10.5,47,0.00,,,0.00,VWS V13.01,2013-02-24 18:24:00,
2013-02-24 12:29:00,50.9,31.4,29.98,NE,55,8.1,8.1,47,0.00,,,0.00,VWS V13.01,2013-02-24 18:29:00,
2013-02-24 12:34:00,51.4,31.9,29.98,East,83,5.8,5.8,47,0.00,,,0.00,VWS V13.01,2013-02-24 18:34:00,
2013-02-24 12:39:00,51.6,32.0,29.98,NNE,23,6.3,6.3,47,0.00,,,0.00,VWS V13.01,2013-02-24 18:39:00,
2013-02-24 12:44:00,52.1,32.5,29.98,ENE,64,8.1,9.2,47,0.00,,,0.00,VWS V13.01,2013-02-24 18:44:00,
2013-02-24 12:49:00,53.0,33.4,29.98,NE,53,5.4,5.4,47,0.00,,,0.00,VWS V13.01,2013-02-24 18:49:00,
2013-02-24 13:10:00,52.5,32.9,29.98,East,89,8.1,8.1,47,0.00,,,0.00,VWS V13.01,2013-02-24 19:10:00,
2013-02-24 13:15:00,52.5,32.9,29.95,ESE,104,5.4,5.4,47,0.00,,,0.00,VWS V13.01,2013-02-24 19:15:00,
2013-02-24 13:20:00,52.7,33.0,29.95,East,87,8.1,11.0,47,0.00,,,0.00,VWS V13.01,2013-02-24 19:20:00,
2013-02-24 13:25:00,52.9,33.2,29.95,ESE,109,5.8,5.8,47,0.00,,,0.00,VWS V13.01,2013-02-24 19:25:00,
2013-02-24 13:30:00,53.2,33.5,29.92,NE,39,8.3,8.3,47,0.00,,,0.00,VWS V13.01,2013-02-24 19:30:00,
2013-02-24 13:35:00,53.4,33.2,29.92,ESE,108,5.8,10.1,46,0.00,,,0.00,VWS V13.01,2013-02-24 19:35:00,
2013-02-24 13:40:00,54.1,33.8,29.92,East,96,5.4,5.4,46,0.00,,,0.00,VWS V13.01,2013-02-24 19:40:00,
2013-02-24 13:45:00,54.3,34.0,29.95,East,97,5.8,6.3,46,0.00,,,0.00,VWS V13.01,2013-02-24 19:45:00,
2013-02-24 13:50:00,53.9,33.7,29.95,SE,127,8.1,11.0,46,0.00,,,0.00,VWS V13.01,2013-02-24 19:50:00,
2013-02-24 13:55:00,53.6,33.3,29.95,ESE,110,5.4,8.1,46,0.00,,,0.00,VWS V13.01,2013-02-24 19:55:00,
2013-02-24 14:00:00,54.3,34.5,29.95,South,172,7.2,10.1,47,0.00,,,0.00,VWS V13.01,2013-02-24 20:00:00,
2013-02-24 14:05:00,54.3,34.0,29.95,ESE,121,10.1,10.1,46,0.00,,,0.00,VWS V13.01,2013-02-24 20:05:00,
2013-02-24 14:10:00,54.3,34.0,29.95,SSE,147,7.6,7.6,46,0.00,,,0.00,VWS V13.01,2013-02-24 20:10:00,
2013-02-24 14:15:00,54.5,34.1,29.92,ESE,111,8.1,8.1,46,0.00,,,0.00,VWS V13.01,2013-02-24 20:15:00,
2013-02-24 14:20:00,54.3,34.0,29.92,East,89,5.4,7.6,46,0.00,,,0.00,VWS V13.01,2013-02-24 20:20:00,
2013-02-24 14:25:00,54.8,34.5,29.92,East,81,11.0,11.0,46,0.00,,,0.00,VWS V13.01,2013-02-24 20:25:00,
2013-02-24 14:30:00,54.7,34.3,29.95,East,88,8.7,11.0,46,0.00,,,0.00,VWS V13.01,2013-02-24 20:30:00,
2013-02-24 14:35:00,54.3,34.0,29.95,SE,133,10.5,10.5,46,0.00,,,0.00,VWS V13.01,2013-02-24 20:35:00,
2013-02-24 14:40:00,54.3,34.0,29.95,SE,135,3.6,3.6,46,0.00,,,0.00,VWS V13.01,2013-02-24 20:40:00,
2013-02-24 14:45:00,54.3,34.0,29.92,ESE,112,4.0,7.6,46,0.00,,,0.00,VWS V13.01,2013-02-24 20:45:00,
2013-02-24 14:50:00,54.3,34.0,29.92,ESE,121,4.0,4.9,46,0.00,,,0.00,VWS V13.01,2013-02-24 20:50:00,
2013-02-24 14:55:00,55.0,34.6,29.92,ENE,67,8.1,9.2,46,0.00,,,0.00,VWS V13.01,2013-02-24 20:55:00,
2013-02-24 15:00:00,55.4,34.4,29.92,SSE,150,3.1,3.6,45,0.00,,,0.00,VWS V13.01,2013-02-24 21:00:00,
2013-02-24 15:05:00,55.6,35.1,29.92,SE,140,7.2,7.2,46,0.00,,,0.00,VWS V13.01,2013-02-24 21:05:00,
2013-02-24 15:10:00,55.6,35.1,29.92,East,90,6.3,6.7,46,0.00,,,0.00,VWS V13.01,2013-02-24 21:10:00,
2013-02-24 15:15:00,55.2,34.2,29.92,ENE,60,4.9,4.9,45,0.00,,,0.00,VWS V13.01,2013-02-24 21:15:00,
2013-02-24 15:20:00,55.0,34.6,29.92,ENE,67,5.8,5.8,46,0.00,,,0.00,VWS V13.01,2013-02-24 21:20:00,
2013-02-24 15:25:00,55.2,34.2,29.92,ENE,76,11.4,11.4,45,0.00,,,0.00,VWS V13.01,2013-02-24 21:25:00,
2013-02-24 15:30:00,55.2,34.2,29.92,SE,127,8.3,8.3,45,0.00,,,0.00,VWS V13.01,2013-02-24 21:30:00,
2013-02-24 15:35:00,55.0,34.6,29.92,East,90,11.0,11.0,46,0.00,,,0.00,VWS V13.01,2013-02-24 21:35:00,
2013-02-24 15:40:00,55.2,34.2,29.92,NE,47,4.9,7.2,45,0.00,,,0.00,VWS V13.01,2013-02-24 21:40:00,
2013-02-24 15:45:00,55.6,34.6,29.92,NE,42,5.4,10.5,45,0.00,,,0.00,VWS V13.01,2013-02-24 21:45:00,
2013-02-24 15:50:00,55.4,34.4,29.92,East,100,8.3,11.0,45,0.00,,,0.00,VWS V13.01,2013-02-24 21:50:00,
2013-02-24 15:55:00,55.2,34.2,29.92,East,90,8.3,8.3,45,0.00,,,0.00,VWS V13.01,2013-02-24 21:55:00,
2013-02-24 16:00:00,55.4,34.4,29.89,NE,55,6.3,6.3,45,0.00,,,0.00,VWS V13.01,2013-02-24 22:00:00,
2013-02-24 16:05:00,55.7,34.7,29.89,ENE,76,5.8,8.3,45,0.00,,,0.00,VWS V13.01,2013-02-24 22:05:00,
2013-02-24 16:10:00,55.7,34.7,29.89,East,80,6.3,8.7,45,0.00,,,0.00,VWS V13.01,2013-02-24 22:10:00,
2013-02-24 16:14:00,55.7,34.7,29.89,East,86,7.6,7.6,45,0.00,,,0.00,VWS V13.01,2013-02-24 22:14:00,
2013-02-24 16:19:00,55.7,34.7,29.89,ENE,78,8.1,8.1,45,0.00,,,0.00,VWS V13.01,2013-02-24 22:19:00,
2013-02-24 16:24:00,55.6,34.6,29.89,East,79,10.5,11.0,45,0.00,,,0.00,VWS V13.01,2013-02-24 22:24:00,
2013-02-24 16:29:00,55.6,34.6,29.89,ESE,112,8.1,9.6,45,0.00,,,0.00,VWS V13.01,2013-02-24 22:29:00,
2013-02-24 16:34:00,55.2,34.2,29.89,East,91,7.6,8.7,45,0.00,,,0.00,VWS V13.01,2013-02-24 22:34:00,
2013-02-24 16:39:00,55.2,34.2,29.89,East,98,10.5,10.5,45,0.00,,,0.00,VWS V13.01,2013-02-24 22:39:00,
2013-02-24 16:44:00,55.0,34.1,29.89,ENE,69,8.3,8.3,45,0.00,,,0.00,VWS V13.01,2013-02-24 22:44:00,
2013-02-24 16:49:00,54.8,34.5,29.89,ENE,76,5.8,8.1,46,0.00,,,0.00,VWS V13.01,2013-02-24 22:49:00,
2013-02-24 16:54:00,54.8,33.9,29.89,ENE,77,3.6,11.9,45,0.00,,,0.00,VWS V13.01,2013-02-24 22:54:00,
2013-02-24 16:59:00,54.7,34.3,29.89,East,90,6.3,6.3,46,0.00,,,0.00,VWS V13.01,2013-02-24 22:59:00,
2013-02-24 17:04:00,54.7,34.3,29.89,ENE,59,4.0,4.9,46,0.00,,,0.00,VWS V13.01,2013-02-24 23:04:00,
2013-02-24 17:09:00,54.7,34.3,29.89,NE,47,6.3,7.6,46,0.00,,,0.00,VWS V13.01,2013-02-24 23:09:00,
2013-02-24 17:14:00,54.3,34.0,29.86,East,88,5.8,8.1,46,0.00,,,0.00,VWS V13.01,2013-02-24 23:14:00,
2013-02-24 17:19:00,54.1,33.8,29.86,ENE,60,9.6,9.6,46,0.00,,,0.00,VWS V13.01,2013-02-24 23:19:00,
2013-02-24 17:24:00,53.9,33.7,29.86,East,79,7.6,10.1,46,0.00,,,0.00,VWS V13.01,2013-02-24 23:24:00,
2013-02-24 17:29:00,53.8,33.5,29.86,ENE,76,5.8,8.7,46,0.00,,,0.00,VWS V13.01,2013-02-24 23:29:00,
2013-02-24 17:34:00,53.6,33.3,29.86,ENE,68,6.3,8.7,46,0.00,,,0.00,VWS V13.01,2013-02-24 23:34:00,
2013-02-24 17:39:00,53.2,33.0,29.86,ENE,64,4.0,4.9,46,0.00,,,0.00,VWS V13.01,2013-02-24 23:39:00,
2013-02-24 17:44:00,53.0,33.4,29.86,NE,45,3.6,6.3,47,0.00,,,0.00,VWS V13.01,2013-02-24 23:44:00,
2013-02-24 17:49:00,52.5,32.9,29.86,East,97,5.4,6.3,47,0.00,,,0.00,VWS V13.01,2013-02-24 23:49:00,
2013-02-24 17:54:00,52.3,32.7,29.86,NE,39,8.3,8.3,47,0.00,,,0.00,VWS V13.01,2013-02-24 23:54:00,
2013-02-24 17:59:00,52.0,32.4,29.86,ENE,69,8.7,8.7,47,0.00,,,0.00,VWS V13.01,2013-02-24 23:59:00,
2013-02-24 18:04:00,51.8,32.2,29.86,NNE,28,8.1,8.1,47,0.00,,,0.00,VWS V13.01,2013-02-25 00:04:00,
2013-02-24 18:09:00,51.8,32.2,29.86,East,86,5.4,5.4,47,0.00,,,0.00,VWS V13.01,2013-02-25 00:09:00,
2013-02-24 18:14:00,51.2,31.7,29.86,ENE,62,4.9,5.4,47,0.00,,,0.00,VWS V13.01,2013-02-25 00:14:00,
2013-02-24 18:19:00,50.9,31.9,29.86,ENE,58,8.7,8.7,48,0.00,,,0.00,VWS V13.01,2013-02-25 00:19:00,
2013-02-24 18:24:00,50.9,31.9,29.86,NE,45,3.6,6.3,48,0.00,,,0.00,VWS V13.01,2013-02-25 00:24:00,
2013-02-24 18:29:00,50.7,31.7,29.86,ENE,77,6.3,8.1,48,0.00,,,0.00,VWS V13.01,2013-02-25 00:29:00,
2013-02-24 18:34:00,50.2,31.2,29.86,NNE,30,4.0,4.0,48,0.00,,,0.00,VWS V13.01,2013-02-25 00:34:00,
2013-02-24 18:39:00,50.0,31.6,29.86,ENE,58,4.9,4.9,49,0.00,,,0.00,VWS V13.01,2013-02-25 00:39:00,
2013-02-24 18:44:00,49.6,31.3,29.86,ENE,57,3.6,4.0,49,0.00,,,0.00,VWS V13.01,2013-02-25 00:44:00,
2013-02-24 18:49:00,49.4,31.6,29.89,NE,55,3.6,4.0,50,0.00,,,0.00,VWS V13.01,2013-02-25 00:49:00,
2013-02-24 18:54:00,49.3,31.4,29.89,NE,50,3.6,5.4,50,0.00,,,0.00,VWS V13.01,2013-02-25 00:54:00,
2013-02-24 18:59:00,49.1,31.3,29.86,NE,55,3.1,3.6,50,0.00,,,0.00,VWS V13.01,2013-02-25 00:59:00,
2013-02-24 19:04:00,48.7,30.9,29.86,NE,56,3.1,5.4,50,0.00,,,0.00,VWS V13.01,2013-02-25 01:04:00,
2013-02-24 19:09:00,48.5,31.2,29.86,ENE,58,3.1,4.0,51,0.00,,,0.00,VWS V13.01,2013-02-25 01:09:00,
2013-02-24 19:14:00,48.4,31.1,29.86,ENE,64,4.9,4.9,51,0.00,,,0.00,VWS V13.01,2013-02-25 01:14:00,
2013-02-24 19:19:00,48.2,30.9,29.86,ENE,62,5.4,5.8,51,0.00,,,0.00,VWS V13.01,2013-02-25 01:19:00,
2013-02-24 19:24:00,48.0,30.8,29.86,NE,46,4.9,4.9,51,0.00,,,0.00,VWS V13.01,2013-02-25 01:24:00,
2013-02-24 19:29:00,47.8,31.1,29.89,NE,40,5.4,5.4,52,0.00,,,0.00,VWS V13.01,2013-02-25 01:29:00,
2013-02-24 19:34:00,47.6,30.9,29.89,NE,36,4.0,5.4,52,0.00,,,0.00,VWS V13.01,2013-02-25 01:34:00,
2013-02-24 19:39:00,47.6,31.4,29.89,NNE,21,3.6,4.0,53,0.00,,,0.00,VWS V13.01,2013-02-25 01:39:00,
2013-02-24 19:44:00,47.3,31.0,29.89,NNE,29,3.1,3.1,53,0.00,,,0.00,VWS V13.01,2013-02-25 01:44:00,
2013-02-24 19:49:00,46.9,31.2,29.89,NE,55,3.1,4.0,54,0.00,,,0.00,VWS V13.01,2013-02-25 01:49:00,
2013-02-24 19:54:00,46.7,31.4,29.89,NE,41,2.7,3.1,55,0.00,,,0.00,VWS V13.01,2013-02-25 01:54:00,
2013-02-24 19:59:00,46.4,31.1,29.89,NE,43,4.0,4.9,55,0.00,,,0.00,VWS V13.01,2013-02-25 01:59:00,
2013-02-24 20:04:00,46.0,31.2,29.89,NE,54,3.6,4.0,56,0.00,,,0.00,VWS V13.01,2013-02-25 02:04:00,
2013-02-24 20:09:00,46.0,31.6,29.89,ENE,60,4.0,4.0,57,0.00,,,0.00,VWS V13.01,2013-02-25 02:09:00,
2013-02-24 20:14:00,45.8,31.5,29.89,NE,49,3.6,4.0,57,0.00,,,0.00,VWS V13.01,2013-02-25 02:14:00,
2013-02-24 20:19:00,46.0,31.6,29.89,NE,41,5.8,5.8,57,0.00,,,0.00,VWS V13.01,2013-02-25 02:19:00,
2013-02-24 20:24:00,46.0,31.6,29.89,ENE,61,3.1,3.6,57,0.00,,,0.00,VWS V13.01,2013-02-25 02:24:00,
2013-02-24 20:29:00,45.8,31.5,29.89,NNE,27,4.0,5.8,57,0.00,,,0.00,VWS V13.01,2013-02-25 02:29:00,
2013-02-24 20:34:00,46.0,31.6,29.89,NE,48,3.1,3.1,57,0.00,,,0.00,VWS V13.01,2013-02-25 02:34:00,
2013-02-24 20:39:00,45.8,31.5,29.89,NE,54,3.1,4.0,57,0.00,,,0.00,VWS V13.01,2013-02-25 02:39:00,
2013-02-24 20:44:00,45.5,31.1,29.89,NE,56,4.0,5.8,57,0.00,,,0.00,VWS V13.01,2013-02-25 02:44:00,
2013-02-24 20:49:00,45.3,31.0,29.89,NE,35,6.3,7.6,57,0.00,,,0.00,VWS V13.01,2013-02-25 02:49:00,
2013-02-24 20:54:00,45.5,31.1,29.89,ENE,64,6.3,6.3,57,0.00,,,0.00,VWS V13.01,2013-02-25 02:54:00,
2013-02-24 20:59:00,45.8,31.5,29.89,ENE,73,5.4,7.6,57,0.00,,,0.00,VWS V13.01,2013-02-25 02:59:00,
2013-02-24 21:04:00,45.8,31.5,29.89,NNE,33,6.3,6.3,57,0.00,,,0.00,VWS V13.01,2013-02-25 03:04:00,
2013-02-24 21:09:00,45.7,31.3,29.89,NE,47,5.4,5.4,57,0.00,,,0.00,VWS V13.01,2013-02-25 03:09:00,
2013-02-24 21:14:00,45.5,31.1,29.89,NE,38,3.1,4.9,57,0.00,,,0.00,VWS V13.01,2013-02-25 03:14:00,
2013-02-24 21:19:00,45.3,31.4,29.89,ENE,58,5.4,5.4,58,0.00,,,0.00,VWS V13.01,2013-02-25 03:19:00,
2013-02-24 21:24:00,45.1,31.2,29.89,ENE,68,7.6,7.6,58,0.00,,,0.00,VWS V13.01,2013-02-25 03:24:00,
2013-02-24 21:29:00,44.8,30.9,29.89,NE,36,5.4,5.8,58,0.00,,,0.00,VWS V13.01,2013-02-25 03:29:00,
2013-02-24 21:34:00,44.8,30.9,29.89,NE,42,8.1,8.3,58,0.00,,,0.00,VWS V13.01,2013-02-25 03:34:00,
2013-02-24 21:39:00,44.8,30.9,29.89,NNE,31,6.7,6.7,58,0.00,,,0.00,VWS V13.01,2013-02-25 03:39:00,
2013-02-24 21:44:00,44.6,30.7,29.89,ENE,64,8.1,8.1,58,0.00,,,0.00,VWS V13.01,2013-02-25 03:44:00,
2013-02-24 21:49:00,44.4,30.6,29.89,NE,38,4.0,5.4,58,0.00,,,0.00,VWS V13.01,2013-02-25 03:49:00,
2013-02-24 21:54:00,44.2,30.8,29.89,NE,53,6.3,6.3,59,0.00,,,0.00,VWS V13.01,2013-02-25 03:54:00,
2013-02-24 21:59:00,44.0,30.6,29.89,NE,44,4.9,6.3,59,0.00,,,0.00,VWS V13.01,2013-02-25 03:59:00,
2013-02-24 22:04:00,44.0,30.6,29.89,NE,41,5.8,5.8,59,0.00,,,0.00,VWS V13.01,2013-02-25 04:04:00,
2013-02-24 22:09:00,44.0,31.1,29.89,ENE,63,5.4,5.4,60,0.00,,,0.00,VWS V13.01,2013-02-25 04:09:00,
2013-02-24 22:14:00,43.9,30.9,29.86,NE,45,3.6,4.9,60,0.00,,,0.00,VWS V13.01,2013-02-25 04:14:00,
2013-02-24 22:19:00,43.5,30.5,29.86,NNE,26,4.9,5.4,60,0.00,,,0.00,VWS V13.01,2013-02-25 04:19:00,
2013-02-24 22:24:00,43.5,30.5,29.86,NNE,23,3.6,3.6,60,0.00,,,0.00,VWS V13.01,2013-02-25 04:24:00,
2013-02-24 22:29:00,43.3,30.4,29.86,NNE,16,3.6,3.6,60,0.00,,,0.00,VWS V13.01,2013-02-25 04:29:00,
2013-02-24 22:34:00,43.1,30.2,29.86,North,356,3.6,3.6,60,0.00,,,0.00,VWS V13.01,2013-02-25 04:34:00,
2013-02-24 22:39:00,43.0,30.0,29.86,NE,46,5.4,5.4,60,0.00,,,0.00,VWS V13.01,2013-02-25 04:39:00,
2013-02-24 22:44:00,42.8,29.9,29.86,North,1,3.6,4.9,60,0.00,,,0.00,VWS V13.01,2013-02-25 04:44:00,
2013-02-24 22:49:00,42.8,29.9,29.86,NNE,24,3.1,3.6,60,0.00,,,0.00,VWS V13.01,2013-02-25 04:49:00,
2013-02-24 22:54:00,42.4,29.9,29.86,NE,40,4.5,4.5,61,0.00,,,0.00,VWS V13.01,2013-02-25 04:54:00,
2013-02-24 22:59:00,41.7,29.7,29.86,NNE,24,2.7,2.7,62,0.00,,,0.00,VWS V13.01,2013-02-25 04:59:00,
2013-02-24 23:00:00,41.7,29.7,29.86,NE,42,4.9,4.9,62,0.00,,,0.00,VWS V13.01,2013-02-25 05:00:00,
2013-02-24 23:05:00,41.3,29.7,29.86,NNE,12,2.2,3.6,63,0.00,,,0.00,VWS V13.01,2013-02-25 05:05:00,
2013-02-24 23:10:00,41.2,29.5,29.86,North,5,0.0,0.0,63,0.00,,,0.00,VWS V13.01,2013-02-25 05:10:00,
2013-02-24 23:15:00,41.0,29.4,29.83,NW,318,2.2,2.2,63,0.00,,,0.00,VWS V13.01,2013-02-25 05:15:00,
2013-02-24 23:20:00,41.0,29.8,29.83,WNW,296,3.6,3.6,64,0.00,,,0.00,VWS V13.01,2013-02-25 05:20:00,
2013-02-24 23:25:00,41.2,29.5,29.83,NW,318,0.0,0.0,63,0.00,,,0.00,VWS V13.01,2013-02-25 05:25:00,
2013-02-24 23:30:00,41.0,29.4,29.86,NW,318,0.0,0.0,63,0.00,,,0.00,VWS V13.01,2013-02-25 05:30:00,
2013-02-24 23:35:00,41.0,29.4,29.86,NW,318,0.0,0.0,63,0.00,,,0.00,VWS V13.01,2013-02-25 05:35:00,
2013-02-24 23:40:00,41.0,29.4,29.86,NW,318,0.0,0.0,63,0.00,,,0.00,VWS V13.01,2013-02-25 05:40:00,
2013-02-24 23:45:00,40.8,29.2,29.86,NE,40,5.4,5.4,63,0.00,,,0.00,VWS V13.01,2013-02-25 05:45:00,
2013-02-24 23:50:00,40.1,28.9,29.86,ENE,70,2.7,3.1,64,0.00,,,0.00,VWS V13.01,2013-02-25 05:50:00,
2013-02-24 23:55:00,39.2,28.8,29.86,ENE,61,2.2,2.7,66,0.00,,,0.00,VWS V13.01,2013-02-25 05:55:00,